Time;durP1;ratioP1;P1;durP2;ratioP2;P2;SDS_P1;SDS_P2;PMS_P1;PMS_P2;Temp;Humidity;BMP_temperature;BMP_pressure;BME280_temperature;BME280_humidity;BME280_pressure;Samples;Min_cycle;Max_cycle;Signal;HPM_P1;HPM_P2
2021/03/07 00:02:16;;;;;;;11.13;6.70;;;4.40;99.90;;;;;;5056102;28;20214;-79
2021/03/07 00:04:43;;;;;;;7.22;5.78;;;4.40;99.90;;;;;;5046205;28;20214;-79
2021/03/07 00:07:09;;;;;;;6.50;5.90;;;4.30;99.90;;;;;;5041286;28;20231;-80
2021/03/07 00:09:35;;;;;;;6.60;5.65;;;4.30;99.90;;;;;;5040391;28;20203;-80
2021/03/07 00:12:02;;;;;;;7.70;5.72;;;4.40;99.90;;;;;;5040238;28;20216;-79
2021/03/07 00:14:29;;;;;;;7.13;6.43;;;4.40;99.90;;;;;;5040111;28;20614;-79
2021/03/07 00:16:55;;;;;;;8.93;5.50;;;4.20;99.90;;;;;;5039636;28;20602;-79
2021/03/07 00:19:22;;;;;;;6.55;5.85;;;4.20;99.90;;;;;;5065423;22;20240;-84
2021/03/07 00:21:48;;;;;;;5.78;5.25;;;4.30;99.90;;;;;;5044408;28;20204;-85
2021/03/07 00:24:14;;;;;;;8.45;5.65;;;4.20;99.90;;;;;;5039218;28;20208;-84
2021/03/07 00:26:40;;;;;;;8.30;6.63;;;4.20;99.90;;;;;;5038427;28;20278;-85
2021/03/07 00:29:07;;;;;;;7.47;5.72;;;4.20;99.90;;;;;;5039120;28;20684;-85
2021/03/07 00:31:33;;;;;;;10.13;5.55;;;4.20;99.90;;;;;;5037513;28;20203;-85
2021/03/07 00:33:59;;;;;;;7.68;6.80;;;4.00;99.90;;;;;;5039023;28;20199;-84
2021/03/07 00:36:26;;;;;;;7.47;5.65;;;4.10;99.90;;;;;;5038033;28;20210;-83
2021/03/07 00:38:52;;;;;;;6.38;5.47;;;4.10;99.90;;;;;;5037691;28;20228;-85
2021/03/07 00:41:18;;;;;;;8.32;5.60;;;4.10;99.90;;;;;;5040193;28;20539;-85
2021/03/07 00:43:45;;;;;;;8.00;5.35;;;4.20;99.90;;;;;;5038685;28;20215;-85
2021/03/07 00:46:12;;;;;;;6.68;6.05;;;4.20;99.90;;;;;;5038983;28;20219;-86
2021/03/07 00:48:38;;;;;;;5.95;5.25;;;4.10;99.90;;;;;;5039023;28;20224;-86
2021/03/07 00:51:04;;;;;;;6.25;5.65;;;4.20;99.90;;;;;;5039148;28;20206;-86
2021/03/07 00:53:30;;;;;;;8.13;5.68;;;4.20;99.90;;;;;;5046619;28;20203;-85
2021/03/07 00:55:57;;;;;;;7.70;6.13;;;4.20;99.90;;;;;;5054536;28;20184;-85
2021/03/07 00:58:23;;;;;;;8.13;5.88;;;4.20;99.90;;;;;;5057347;28;20224;-86
2021/03/07 01:00:49;;;;;;;6.75;6.10;;;4.30;99.90;;;;;;5057213;28;20204;-85
2021/03/07 01:03:16;;;;;;;11.02;7.25;;;4.20;99.90;;;;;;5058288;28;20204;-86
2021/03/07 01:05:42;;;;;;;9.10;7.40;;;4.20;99.90;;;;;;5057069;28;20207;-85
2021/03/07 01:08:09;;;;;;;9.68;8.52;;;4.20;99.90;;;;;;5056787;28;20224;-85
2021/03/07 01:10:37;;;;;;;10.63;7.43;;;4.10;99.90;;;;;;5054251;28;20204;-85
2021/03/07 01:13:05;;;;;;;7.00;6.30;;;4.20;99.90;;;;;;5050195;28;20686;-84
2021/03/07 01:15:32;;;;;;;8.20;7.10;;;4.10;99.90;;;;;;5047862;28;20268;-86
2021/03/07 01:17:59;;;;;;;10.10;7.57;;;4.10;99.90;;;;;;5044729;28;20323;-85
2021/03/07 01:20:27;;;;;;;8.20;7.03;;;4.00;99.90;;;;;;5045536;28;20597;-86
2021/03/07 01:22:54;;;;;;;9.13;7.78;;;4.00;99.90;;;;;;5044898;28;20211;-85
2021/03/07 01:25:22;;;;;;;7.90;5.95;;;4.00;99.90;;;;;;5047131;28;20265;-86
2021/03/07 01:27:48;;;;;;;7.65;6.95;;;4.00;99.90;;;;;;5045237;28;20223;-85
2021/03/07 01:30:17;;;;;;;11.68;8.38;;;3.90;99.90;;;;;;5054926;28;20259;-85
2021/03/07 01:32:43;;;;;;;8.40;7.03;;;3.90;99.90;;;;;;5045759;28;20227;-86
2021/03/07 01:35:10;;;;;;;10.02;7.00;;;3.90;99.90;;;;;;5044172;28;20196;-86
2021/03/07 01:37:37;;;;;;;9.68;7.25;;;3.90;99.90;;;;;;5042176;28;20210;-85
2021/03/07 01:40:07;;;;;;;12.15;7.40;;;3.90;99.90;;;;;;5042007;28;20213;-85
2021/03/07 01:42:33;;;;;;;13.25;8.52;;;3.80;99.90;;;;;;5042299;28;20204;-86
2021/03/07 01:44:59;;;;;;;9.32;8.45;;;3.90;99.90;;;;;;5045418;28;20200;-86
2021/03/07 01:47:31;;;;;;;8.32;7.10;;;3.80;99.90;;;;;;5043981;28;20200;-85
2021/03/07 01:49:57;;;;;;;10.82;8.20;;;3.90;99.90;;;;;;5042892;28;20207;-85
2021/03/07 01:52:24;;;;;;;11.27;7.50;;;3.90;99.90;;;;;;5044853;28;20551;-85
2021/03/07 01:54:51;;;;;;;17.05;7.70;;;3.80;99.90;;;;;;5042099;28;20219;-86
2021/03/07 01:57:20;;;;;;;8.85;7.50;;;3.90;99.90;;;;;;5043647;28;20203;-86
2021/03/07 01:59:47;;;;;;;7.80;6.90;;;3.80;99.90;;;;;;5044702;28;20598;-85
2021/03/07 02:02:14;;;;;;;7.75;6.53;;;3.70;99.90;;;;;;5040659;28;20227;-85
2021/03/07 02:04:42;;;;;;;10.88;6.95;;;3.70;99.90;;;;;;5038068;28;20592;-85
2021/03/07 02:07:09;;;;;;;9.43;7.18;;;3.70;99.90;;;;;;5038578;28;20207;-86
2021/03/07 02:09:35;;;;;;;7.47;6.25;;;3.70;99.90;;;;;;5038719;28;20231;-85
2021/03/07 02:12:02;;;;;;;7.45;6.75;;;3.70;99.90;;;;;;5037980;28;20204;-86
2021/03/07 02:14:30;;;;;;;9.88;6.55;;;3.70;99.90;;;;;;5036981;28;20574;-85
2021/03/07 02:16:56;;;;;;;7.15;5.90;;;3.70;99.90;;;;;;5037117;28;20250;-85
2021/03/07 02:19:29;;;;;;;7.63;5.45;;;3.70;99.90;;;;;;5037250;28;20289;-85
2021/03/07 02:21:58;;;;;;;7.97;5.72;;;3.70;99.90;;;;;;5039083;28;20681;-85
2021/03/07 02:24:25;;;;;;;4.20;3.80;;;3.70;99.90;;;;;;5039443;28;20211;-85
2021/03/07 02:26:52;;;;;;;7.68;5.22;;;3.80;99.90;;;;;;5041225;28;20226;-85
2021/03/07 02:29:21;;;;;;;4.88;4.30;;;3.80;99.90;;;;;;5042290;28;20219;-85
2021/03/07 02:31:50;;;;;;;5.05;3.83;;;3.70;99.90;;;;;;5037246;28;20207;-85
2021/03/07 02:34:20;;;;;;;4.35;3.95;;;3.70;99.90;;;;;;5037034;28;20218;-85
2021/03/07 02:36:49;;;;;;;3.92;3.45;;;3.60;99.90;;;;;;5036330;28;20206;-86
2021/03/07 02:39:18;;;;;;;6.80;6.15;;;3.70;99.90;;;;;;5035089;28;20277;-85
2021/03/07 02:41:46;;;;;;;3.33;3.00;;;3.60;99.90;;;;;;5035179;28;20203;-85
2021/03/07 02:44:14;;;;;;;2.50;2.30;;;3.60;99.90;;;;;;5034885;28;20655;-85
2021/03/07 02:46:41;;;;;;;2.63;2.40;;;3.70;99.90;;;;;;5036925;28;20717;-85
2021/03/07 02:49:13;;;;;;;4.47;3.00;;;3.60;99.90;;;;;;5040423;28;20246;-85
2021/03/07 02:51:41;;;;;;;10.55;2.80;;;3.70;99.90;;;;;;5039790;28;20192;-86
2021/03/07 02:54:09;;;;;;;3.70;2.50;;;3.60;99.90;;;;;;5042762;28;20199;-86
2021/03/07 02:56:37;;;;;;;3.75;3.10;;;3.60;99.90;;;;;;5037264;28;20200;-86
2021/03/07 02:59:10;;;;;;;4.40;2.90;;;3.60;99.90;;;;;;5036322;28;20227;-85
2021/03/07 03:01:37;;;;;;;6.95;3.15;;;3.60;99.90;;;;;;5035907;28;20639;-86
2021/03/07 03:04:04;;;;;;;3.22;3.03;;;3.50;99.90;;;;;;5035201;28;20207;-86
2021/03/07 03:06:30;;;;;;;4.43;2.15;;;3.40;99.90;;;;;;5034714;28;20273;-86
2021/03/07 03:09:00;;;;;;;5.38;2.50;;;3.50;99.90;;;;;;5035234;28;20228;-85
2021/03/07 03:11:31;;;;;;;2.75;2.17;;;3.50;99.90;;;;;;5035304;28;20291;-85
2021/03/07 03:13:58;;;;;;;2.47;2.28;;;3.50;99.90;;;;;;5041425;28;20198;-85
2021/03/07 03:16:28;;;;;;;4.05;2.22;;;3.40;99.90;;;;;;5054450;28;20204;-85
2021/03/07 03:18:56;;;;;;;2.80;2.55;;;3.40;99.90;;;;;;5043746;28;20235;-85
2021/03/07 03:21:23;;;;;;;2.97;2.20;;;3.40;99.90;;;;;;5037033;28;20219;-85
2021/03/07 03:23:50;;;;;;;3.28;2.80;;;3.40;99.90;;;;;;5034887;28;20285;-85
2021/03/07 03:26:18;;;;;;;3.70;1.83;;;3.40;99.90;;;;;;5034873;28;20231;-85
2021/03/07 03:28:45;;;;;;;7.57;2.65;;;3.50;99.90;;;;;;5048180;28;20232;-85
2021/03/07 03:31:11;;;;;;;2.78;2.28;;;3.40;99.90;;;;;;5042495;28;20210;-86
2021/03/07 03:33:38;;;;;;;2.90;2.70;;;3.40;99.90;;;;;;5034719;28;20301;-86
2021/03/07 03:36:05;;;;;;;3.50;2.35;;;3.30;99.90;;;;;;5034503;28;20280;-86
2021/03/07 03:38:35;;;;;;;3.08;2.17;;;3.30;99.90;;;;;;5038411;28;20223;-86
2021/03/07 03:41:02;;;;;;;3.20;2.90;;;3.30;99.90;;;;;;5036488;28;20278;-86
2021/03/07 03:43:29;;;;;;;5.40;2.78;;;3.20;99.90;;;;;;5035635;28;20208;-85
2021/03/07 03:46:00;;;;;;;3.47;2.55;;;3.30;99.90;;;;;;5035900;28;20263;-85
2021/03/07 03:48:30;;;;;;;2.67;2.47;;;3.40;99.90;;;;;;5034931;28;20247;-85
2021/03/07 03:51:01;;;;;;;3.30;2.65;;;3.30;99.90;;;;;;5035750;28;20281;-85
2021/03/07 03:53:30;;;;;;;3.10;2.90;;;3.20;99.90;;;;;;5037589;28;20199;-85
2021/03/07 03:55:59;;;;;;;3.50;3.13;;;3.30;99.90;;;;;;5035125;28;20235;-85
2021/03/07 03:58:29;;;;;;;4.90;3.10;;;3.30;99.90;;;;;;5035932;28;20219;-84
2021/03/07 04:00:56;;;;;;;5.85;2.90;;;3.10;99.90;;;;;;5037047;28;20200;-85
2021/03/07 04:03:24;;;;;;;3.00;2.80;;;3.10;99.90;;;;;;5036604;28;20232;-85
2021/03/07 04:05:51;;;;;;;5.40;2.58;;;3.10;99.90;;;;;;5035962;28;20329;-85
2021/03/07 04:08:20;;;;;;;3.72;3.05;;;3.10;99.90;;;;;;5038604;28;20278;-84
2021/03/07 04:10:48;;;;;;;5.22;3.00;;;3.10;99.90;;;;;;5039134;28;20236;-84
2021/03/07 04:13:17;;;;;;;3.60;2.50;;;3.00;99.90;;;;;;5038731;28;20242;-84
2021/03/07 04:15:44;;;;;;;4.03;3.40;;;2.90;99.90;;;;;;5037868;28;20689;-85
2021/03/07 04:18:12;;;;;;;5.18;3.38;;;3.00;99.90;;;;;;5037728;28;20236;-85
2021/03/07 04:20:39;;;;;;;5.78;3.03;;;3.00;99.90;;;;;;5038618;28;20188;-85
2021/03/07 04:23:05;;;;;;;3.15;2.95;;;2.90;99.90;;;;;;5044289;28;20230;-85
2021/03/07 04:25:32;;;;;;;5.25;3.25;;;3.00;99.90;;;;;;5050482;28;20223;-85
2021/03/07 04:27:58;;;;;;;3.42;3.13;;;2.90;99.90;;;;;;5050822;28;20220;-85
2021/03/07 04:30:25;;;;;;;4.63;3.75;;;2.80;99.90;;;;;;5055077;28;20218;-85
2021/03/07 04:32:53;;;;;;;10.38;3.53;;;2.80;99.90;;;;;;5056761;28;20235;-85
2021/03/07 04:35:20;;;;;;;4.95;3.40;;;2.90;99.90;;;;;;5057957;28;20199;-84
2021/03/07 04:37:46;;;;;;;4.32;3.15;;;2.80;99.90;;;;;;5051061;28;20224;-84
2021/03/07 04:40:13;;;;;;;4.80;3.08;;;2.70;99.90;;;;;;5041003;28;20204;-84
2021/03/07 04:42:42;;;;;;;3.78;2.97;;;2.70;99.90;;;;;;5044540;28;20208;-85
2021/03/07 04:45:12;;;;;;;5.13;3.20;;;2.70;99.90;;;;;;5041750;28;20207;-85
2021/03/07 04:47:38;;;;;;;4.05;2.80;;;2.40;99.90;;;;;;5042086;28;20639;-85
2021/03/07 04:50:06;;;;;;;8.82;3.42;;;2.60;99.90;;;;;;5044785;28;20274;-84
2021/03/07 04:52:32;;;;;;;7.10;3.90;;;2.60;99.90;;;;;;5043455;28;20207;-84
2021/03/07 04:54:58;;;;;;;8.82;3.17;;;2.50;99.90;;;;;;5044761;28;20204;-85
2021/03/07 04:57:24;;;;;;;5.28;3.00;;;2.80;99.90;;;;;;5042969;28;20204;-85
2021/03/07 04:59:51;;;;;;;3.50;3.20;;;2.60;99.90;;;;;;5047999;28;20204;-85
2021/03/07 05:02:17;;;;;;;5.50;3.45;;;2.60;99.90;;;;;;5056756;28;20204;-85
2021/03/07 05:04:43;;;;;;;3.10;2.63;;;2.50;99.90;;;;;;5047815;28;20215;-85
2021/03/07 05:07:09;;;;;;;7.82;2.85;;;2.60;99.90;;;;;;5041450;28;20254;-85
2021/03/07 05:09:35;;;;;;;8.82;3.20;;;2.70;99.90;;;;;;5057909;28;20212;-83
2021/03/07 05:12:01;;;;;;;3.50;3.20;;;2.60;99.90;;;;;;5059583;28;20203;-85
2021/03/07 05:14:27;;;;;;;10.18;3.63;;;2.60;99.90;;;;;;5059082;28;20207;-85
2021/03/07 05:16:54;;;;;;;4.40;3.05;;;2.60;99.90;;;;;;5042521;28;20200;-85
2021/03/07 05:19:20;;;;;;;7.90;2.95;;;2.60;99.90;;;;;;5040955;28;20277;-85
2021/03/07 05:21:47;;;;;;;4.38;3.45;;;2.60;99.90;;;;;;5039574;28;20272;-85
2021/03/07 05:24:13;;;;;;;7.50;3.40;;;2.70;99.90;;;;;;5038792;28;20208;-84
2021/03/07 05:26:39;;;;;;;6.38;3.70;;;2.70;99.90;;;;;;5042744;28;20219;-85
2021/03/07 05:29:05;;;;;;;4.80;3.10;;;2.70;99.90;;;;;;5045290;28;20219;-85
2021/03/07 05:31:31;;;;;;;5.25;3.50;;;2.70;99.90;;;;;;5043954;28;20204;-86
2021/03/07 05:33:58;;;;;;;3.60;3.20;;;2.60;99.90;;;;;;5042391;28;20666;-85
2021/03/07 05:36:24;;;;;;;3.55;2.80;;;2.70;99.90;;;;;;5042362;28;20775;-85
2021/03/07 05:38:50;;;;;;;3.95;2.85;;;2.90;99.90;;;;;;5038372;28;20270;-85
2021/03/07 05:41:16;;;;;;;4.25;3.10;;;2.60;99.90;;;;;;5041330;28;20215;-85
2021/03/07 05:43:42;;;;;;;9.45;6.68;;;2.80;99.90;;;;;;5039948;28;20208;-85
2021/03/07 05:46:09;;;;;;;4.22;3.00;;;2.70;99.90;;;;;;5040498;28;20220;-86
2021/03/07 05:48:35;;;;;;;5.15;3.53;;;2.60;99.90;;;;;;5038021;28;20255;-85
2021/03/07 05:51:02;;;;;;;12.30;2.65;;;2.60;99.90;;;;;;5036995;28;20254;-85
2021/03/07 05:53:30;;;;;;;3.50;3.20;;;2.70;99.90;;;;;;5040461;28;20222;-85
2021/03/07 05:55:56;;;;;;;5.28;3.42;;;2.70;99.90;;;;;;5039258;28;20673;-85
2021/03/07 05:58:24;;;;;;;5.90;3.45;;;2.90;99.90;;;;;;5036847;28;20220;-85
2021/03/07 06:00:50;;;;;;;5.78;3.22;;;2.80;99.90;;;;;;5038231;28;20231;-86
2021/03/07 06:03:20;;;;;;;3.90;2.80;;;2.70;99.90;;;;;;5044887;28;20214;-85
2021/03/07 06:05:49;;;;;;;3.45;3.10;;;2.80;99.90;;;;;;5056454;28;20235;-86
2021/03/07 06:08:16;;;;;;;4.30;2.88;;;2.70;99.90;;;;;;5058448;28;20215;-85
2021/03/07 06:10:42;;;;;;;5.00;3.13;;;2.80;99.90;;;;;;5057761;28;20199;-85
2021/03/07 06:13:10;;;;;;;6.72;3.10;;;2.70;99.90;;;;;;5054508;28;20195;-85
2021/03/07 06:15:37;;;;;;;2.95;2.75;;;2.80;99.90;;;;;;5051502;28;20666;-85
2021/03/07 06:18:12;;;;;;;5.05;2.80;;;2.80;99.90;;;;;;5052173;22;20234;-79
2021/03/07 06:20:38;;;;;;;5.50;3.55;;;3.00;99.90;;;;;;5040683;28;20191;-79
2021/03/07 06:23:04;;;;;;;2.65;2.45;;;2.90;99.90;;;;;;5039433;28;20207;-79
2021/03/07 06:25:32;;;;;;;3.10;2.90;;;2.90;99.90;;;;;;5037146;28;20698;-79
2021/03/07 06:27:59;;;;;;;5.30;2.30;;;3.00;99.90;;;;;;5039395;28;20237;-79
2021/03/07 06:30:28;;;;;;;3.95;2.10;;;2.70;99.90;;;;;;5038074;28;20449;-79
2021/03/07 06:32:56;;;;;;;7.30;3.40;;;2.90;99.90;;;;;;5037844;28;20254;-79
2021/03/07 06:35:24;;;;;;;2.72;2.38;;;3.00;99.90;;;;;;5039178;28;20207;-79
2021/03/07 06:37:52;;;;;;;5.03;2.85;;;2.60;99.90;;;;;;5038619;28;20809;-79
2021/03/07 06:40:32;;;;;;;3.42;3.00;;;3.30;99.90;;;;;;5037271;28;20581;-79
2021/03/07 06:42:59;;;;;;;3.30;2.85;;;2.90;99.90;;;;;;5039637;28;20188;-79
2021/03/07 06:45:36;;;;;;;5.43;2.45;;;2.90;99.90;;;;;;5039296;28;20600;-79
2021/03/07 06:48:03;;;;;;;8.40;3.97;;;2.80;99.90;;;;;;5038038;28;20744;-79
2021/03/07 06:50:29;;;;;;;9.82;2.88;;;3.00;99.90;;;;;;5038880;28;20203;-79
2021/03/07 06:52:57;;;;;;;6.25;3.40;;;2.90;99.90;;;;;;5038973;28;20204;-79
2021/03/07 06:55:25;;;;;;;6.97;3.95;;;2.90;99.90;;;;;;5047327;28;20234;-79
2021/03/07 06:57:52;;;;;;;3.58;3.10;;;3.10;99.90;;;;;;5055508;28;20200;-78
2021/03/07 07:00:36;;;;;;;5.32;3.35;;;3.00;99.90;;;;;;5049147;28;20218;-78
2021/03/07 07:03:08;;;;;;;4.88;2.65;;;2.90;99.90;;;;;;5054859;28;20461;-78
2021/03/07 07:05:40;;;;;;;4.20;3.10;;;2.90;99.90;;;;;;5054722;28;20306;-78
2021/03/07 07:08:07;;;;;;;4.78;2.60;;;3.00;99.90;;;;;;5047907;28;20224;-79
2021/03/07 07:10:56;;;;;;;6.70;2.78;;;3.00;99.90;;;;;;5043812;28;20203;-79
2021/03/07 07:13:24;;;;;;;5.13;2.60;;;2.90;99.90;;;;;;5047490;28;20206;-79
2021/03/07 07:16:00;;;;;;;5.57;2.88;;;3.10;99.90;;;;;;5045382;28;20453;-79
2021/03/07 07:18:27;;;;;;;4.82;2.72;;;3.10;99.90;;;;;;5045717;28;20246;-79
2021/03/07 07:20:53;;;;;;;8.82;2.95;;;3.00;99.90;;;;;;5044442;28;20203;-79
2021/03/07 07:23:20;;;;;;;3.35;2.88;;;3.00;99.90;;;;;;5045328;28;20273;-80
2021/03/07 07:25:46;;;;;;;3.13;2.83;;;3.00;99.90;;;;;;5041292;28;20227;-80
2021/03/07 07:28:13;;;;;;;2.78;2.38;;;3.00;99.90;;;;;;5041630;28;20231;-79
2021/03/07 07:30:40;;;;;;;3.85;2.80;;;3.00;99.90;;;;;;5041005;28;20207;-80
2021/03/07 07:33:11;;;;;;;6.15;2.65;;;2.80;99.90;;;;;;5039793;28;20295;-80
2021/03/07 07:35:40;;;;;;;4.47;2.10;;;2.60;99.90;;;;;;5037984;28;20438;-79
2021/03/07 07:38:07;;;;;;;4.57;2.78;;;3.00;99.90;;;;;;5039379;28;20581;-80
2021/03/07 07:40:35;;;;;;;2.50;2.33;;;3.10;99.90;;;;;;5047739;28;20231;-80
2021/03/07 07:43:02;;;;;;;7.05;3.28;;;3.40;99.90;;;;;;5059372;28;20225;-79
2021/03/07 07:45:29;;;;;;;3.10;2.38;;;3.20;99.90;;;;;;5059675;28;20204;-80
2021/03/07 07:47:56;;;;;;;3.42;2.33;;;3.00;99.90;;;;;;5057403;28;20211;-78
2021/03/07 07:50:34;;;;;;;3.60;2.47;;;3.10;99.90;;;;;;5053130;28;20425;-78
2021/03/07 07:53:02;;;;;;;2.53;2.40;;;3.20;99.90;;;;;;5057148;28;20218;-78
2021/03/07 07:55:47;;;;;;;8.15;2.60;;;3.30;99.90;;;;;;5055731;28;20199;-78
2021/03/07 07:58:45;;;;;;;3.60;2.20;;;3.70;99.90;;;;;;5056173;28;20433;-78
2021/03/07 08:01:13;;;;;;;3.05;2.20;;;3.50;99.90;;;;;;5052877;28;20434;-78
2021/03/07 08:03:41;;;;;;;3.75;2.75;;;3.30;99.90;;;;;;5049632;28;20843;-78
2021/03/07 08:06:08;;;;;;;3.47;2.50;;;3.40;99.90;;;;;;5043738;28;20230;-79
2021/03/07 08:08:37;;;;;;;4.70;1.93;;;3.40;99.90;;;;;;5044373;28;20526;-79
2021/03/07 08:11:04;;;;;;;3.40;2.85;;;3.40;99.90;;;;;;5043191;28;20838;-80
2021/03/07 08:13:50;;;;;;;3.63;2.80;;;3.30;99.90;;;;;;5043087;28;20208;-79
2021/03/07 08:16:36;;;;;;;2.75;2.58;;;3.40;99.90;;;;;;5041272;28;20238;-79
2021/03/07 08:19:03;;;;;;;2.90;2.70;;;3.40;99.90;;;;;;5040284;28;20385;-79
2021/03/07 08:21:57;;;;;;;2.67;2.47;;;3.40;99.90;;;;;;5040755;28;20238;-79
2021/03/07 08:24:24;;;;;;;6.22;2.80;;;3.50;99.90;;;;;;5041760;28;20215;-78
2021/03/07 08:26:57;;;;;;;2.80;2.50;;;3.60;99.90;;;;;;5040750;28;20449;-80
2021/03/07 08:29:43;;;;;;;4.45;2.90;;;3.50;99.90;;;;;;5043583;28;20228;-79
2021/03/07 08:32:37;;;;;;;3.13;2.92;;;3.50;99.90;;;;;;5040931;28;20188;-79
2021/03/07 08:35:19;;;;;;;2.70;2.50;;;3.50;99.90;;;;;;5040204;28;20204;-79
2021/03/07 08:38:11;;;;;;;4.25;2.85;;;3.50;99.90;;;;;;5040616;28;20480;-79
2021/03/07 08:40:38;;;;;;;5.80;2.55;;;3.50;99.90;;;;;;5041559;28;20212;-79
2021/03/07 08:43:38;;;;;;;3.15;2.90;;;3.50;99.90;;;;;;5040852;28;20204;-79
2021/03/07 08:46:08;;;;;;;4.45;2.72;;;3.60;99.90;;;;;;5041898;28;20219;-79
2021/03/07 08:48:34;;;;;;;4.65;2.38;;;3.60;99.90;;;;;;5058211;28;20207;-78
2021/03/07 08:51:03;;;;;;;3.67;2.72;;;3.60;99.90;;;;;;5058514;28;20188;-76
2021/03/07 08:53:31;;;;;;;4.30;2.42;;;3.60;99.90;;;;;;5056513;28;20210;-79
2021/03/07 08:55:58;;;;;;;3.08;2.50;;;3.50;99.90;;;;;;5053331;28;20577;-80
2021/03/07 08:58:25;;;;;;;3.17;2.58;;;3.80;99.90;;;;;;5046718;28;20697;-80
2021/03/07 09:00:53;;;;;;;4.32;3.17;;;3.70;99.90;;;;;;5046521;28;20204;-80
2021/03/07 09:03:21;;;;;;;11.93;4.20;;;3.60;99.90;;;;;;5045461;28;20808;-80
2021/03/07 09:05:48;;;;;;;3.83;3.13;;;3.70;99.90;;;;;;5044403;28;20246;-80
2021/03/07 09:08:19;;;;;;;3.85;2.55;;;3.70;99.90;;;;;;5042723;28;20234;-80
2021/03/07 09:10:49;;;;;;;3.88;2.85;;;3.80;99.90;;;;;;5042500;28;20188;-79
2021/03/07 09:13:17;;;;;;;4.40;2.95;;;3.80;99.90;;;;;;5045368;28;20645;-80
2021/03/07 09:15:50;;;;;;;3.47;3.17;;;3.80;99.90;;;;;;5048145;28;20200;-80
2021/03/07 09:18:17;;;;;;;4.00;3.20;;;4.00;99.90;;;;;;5042100;28;20636;-79
2021/03/07 09:20:46;;;;;;;4.32;3.50;;;4.20;99.90;;;;;;5043291;28;20242;-79
2021/03/07 09:23:32;;;;;;;2.75;2.55;;;4.20;99.90;;;;;;5046171;28;20261;-78
2021/03/07 09:26:00;;;;;;;9.25;3.17;;;4.00;99.90;;;;;;5041790;28;20222;-79
2021/03/07 09:28:34;;;;;;;5.28;3.10;;;4.00;99.90;;;;;;5042744;28;20278;-81
2021/03/07 09:31:01;;;;;;;3.83;2.70;;;4.20;99.90;;;;;;5041049;28;20187;-80
2021/03/07 09:33:28;;;;;;;5.28;4.05;;;4.10;99.90;;;;;;5041234;28;20210;-81
2021/03/07 09:36:06;;;;;;;4.85;3.00;;;4.00;99.90;;;;;;5039876;28;20208;-79
2021/03/07 09:38:48;;;;;;;3.95;2.80;;;4.10;99.90;;;;;;5042345;28;20231;-80
2021/03/07 09:41:17;;;;;;;3.88;3.58;;;4.00;99.90;;;;;;5040747;28;20220;-79
2021/03/07 09:43:45;;;;;;;5.80;3.30;;;3.90;99.90;;;;;;5038622;28;20261;-81
2021/03/07 09:46:13;;;;;;;7.85;6.57;;;3.80;99.90;;;;;;5038538;28;20315;-80
2021/03/07 09:48:39;;;;;;;3.90;3.08;;;4.00;99.90;;;;;;5047255;28;20287;-79
2021/03/07 09:51:11;;;;;;;6.25;3.70;;;4.00;99.90;;;;;;5056475;28;20199;-79
2021/03/07 09:53:39;;;;;;;5.72;4.00;;;4.20;99.90;;;;;;5055627;28;20188;-78
2021/03/07 09:56:18;;;;;;;4.43;4.13;;;4.00;99.90;;;;;;5048112;28;20200;-80
2021/03/07 09:58:45;;;;;;;9.20;4.10;;;3.60;99.90;;;;;;5040613;28;20625;-80
2021/03/07 10:01:11;;;;;;;5.40;4.50;;;3.70;99.90;;;;;;5038748;28;20208;-79
2021/03/07 10:03:38;;;;;;;8.60;4.28;;;3.80;99.90;;;;;;5038992;28;20744;-79
2021/03/07 10:06:06;;;;;;;6.03;4.25;;;3.90;99.90;;;;;;5039492;28;20219;-80
2021/03/07 10:08:33;;;;;;;7.25;3.80;;;4.00;99.90;;;;;;5040463;28;20603;-79
2021/03/07 10:11:26;;;;;;;7.00;3.90;;;4.10;99.90;;;;;;5038982;28;20204;-80
2021/03/07 10:13:59;;;;;;;4.38;3.97;;;4.10;99.90;;;;;;5026816;28;20261;-80
2021/03/07 10:16:27;;;;;;;7.05;3.40;;;4.00;99.90;;;;;;5049448;28;20192;-79
2021/03/07 10:19:12;;;;;;;6.70;4.30;;;4.00;99.90;;;;;;5053597;28;20255;-79
2021/03/07 10:21:39;;;;;;;6.13;4.45;;;4.10;99.90;;;;;;5048582;28;20188;-80
2021/03/07 10:24:15;;;;;;;6.05;4.15;;;4.10;99.90;;;;;;5041627;28;20572;-81
2021/03/07 10:26:45;;;;;;;4.88;4.20;;;4.00;99.90;;;;;;5041557;28;20203;-81
2021/03/07 10:29:23;;;;;;;7.57;4.00;;;3.90;99.90;;;;;;5042156;28;20621;-80
2021/03/07 10:32:05;;;;;;;5.35;4.85;;;4.00;99.90;;;;;;5052987;28;20203;-80
2021/03/07 10:34:36;;;;;;;3.75;3.45;;;4.10;99.90;;;;;;5048426;28;20203;-80
2021/03/07 10:37:02;;;;;;;5.72;4.47;;;4.20;99.90;;;;;;5041876;28;20291;-80
2021/03/07 10:39:28;;;;;;;5.78;4.20;;;3.90;99.90;;;;;;5049068;28;20243;-80
2021/03/07 10:42:13;;;;;;;5.32;4.13;;;4.10;99.90;;;;;;5053681;28;20208;-79
2021/03/07 10:44:41;;;;;;;8.00;4.43;;;4.20;99.90;;;;;;5043490;28;20199;-79
2021/03/07 10:47:18;;;;;;;5.65;4.72;;;4.30;99.90;;;;;;5039532;28;20353;-79
2021/03/07 10:49:49;;;;;;;4.68;4.22;;;4.20;99.90;;;;;;5038820;28;20227;-81
2021/03/07 10:52:15;;;;;;;4.28;3.92;;;4.20;99.90;;;;;;5038602;28;20203;-80
2021/03/07 10:54:42;;;;;;;6.30;4.00;;;4.10;99.90;;;;;;5038993;28;20670;-80
2021/03/07 10:57:10;;;;;;;7.20;4.05;;;4.10;99.90;;;;;;5038616;28;20298;-80
2021/03/07 10:59:37;;;;;;;5.40;4.30;;;4.20;99.90;;;;;;5038267;28;20238;-80
2021/03/07 11:02:06;;;;;;;4.55;4.13;;;4.20;99.90;;;;;;5039134;28;20686;-79
2021/03/07 11:04:32;;;;;;;6.78;4.82;;;4.30;99.90;;;;;;5046485;28;20210;-82
2021/03/07 11:06:58;;;;;;;5.55;4.57;;;4.30;99.90;;;;;;5055210;28;20207;-79
2021/03/07 11:09:24;;;;;;;4.63;4.22;;;4.20;99.90;;;;;;5053048;28;20223;-79
2021/03/07 11:11:50;;;;;;;5.03;4.47;;;4.20;99.90;;;;;;5047719;28;20204;-80
2021/03/07 11:14:17;;;;;;;7.55;4.75;;;4.10;99.90;;;;;;5044024;28;20720;-79
2021/03/07 11:16:44;;;;;;;8.07;4.30;;;4.10;99.90;;;;;;5044511;28;20200;-81
2021/03/07 11:19:10;;;;;;;5.35;4.18;;;4.20;99.90;;;;;;5041880;28;20239;-80
2021/03/07 11:21:37;;;;;;;9.82;5.70;;;4.30;99.90;;;;;;5040468;28;20536;-79
2021/03/07 11:24:04;;;;;;;5.40;4.00;;;4.30;99.90;;;;;;5042574;28;20212;-80
2021/03/07 11:26:30;;;;;;;9.32;4.22;;;4.40;99.90;;;;;;5042109;28;20286;-80
2021/03/07 11:28:56;;;;;;;5.30;4.78;;;4.30;99.90;;;;;;5041644;28;20226;-81
2021/03/07 11:31:22;;;;;;;9.38;5.05;;;4.40;99.90;;;;;;5040782;28;20643;-80
2021/03/07 11:33:49;;;;;;;5.13;4.63;;;4.40;99.90;;;;;;5041017;28;20203;-79
2021/03/07 11:36:15;;;;;;;5.35;3.95;;;4.30;99.90;;;;;;5041685;28;20200;-78
2021/03/07 11:38:41;;;;;;;6.70;4.03;;;4.30;99.90;;;;;;5040698;28;20441;-79
2021/03/07 11:41:08;;;;;;;7.63;4.70;;;4.40;99.90;;;;;;5040707;28;20287;-80
2021/03/07 11:43:34;;;;;;;9.40;4.97;;;4.30;99.90;;;;;;5040374;28;20459;-79
2021/03/07 11:46:00;;;;;;;4.93;4.43;;;4.20;99.90;;;;;;5041493;28;20222;-78
2021/03/07 11:48:28;;;;;;;5.07;4.40;;;4.20;99.90;;;;;;5042644;28;20231;-80
2021/03/07 11:50:55;;;;;;;5.30;4.80;;;4.30;99.90;;;;;;5043388;28;20207;-80
2021/03/07 11:53:21;;;;;;;5.60;3.97;;;4.50;99.90;;;;;;5042562;28;20441;-81
2021/03/07 11:55:47;;;;;;;9.30;8.00;;;4.40;99.90;;;;;;5042529;28;20282;-80
2021/03/07 11:58:13;;;;;;;6.28;5.65;;;4.70;99.90;;;;;;5044686;28;20230;-80
2021/03/07 12:00:40;;;;;;;9.00;4.60;;;4.50;99.90;;;;;;5056576;28;20207;-79
2021/03/07 12:03:06;;;;;;;8.50;4.75;;;4.50;99.90;;;;;;5056756;28;20210;-79
2021/03/07 12:05:33;;;;;;;6.35;5.53;;;4.40;99.90;;;;;;5055764;28;20207;-80
2021/03/07 12:08:00;;;;;;;9.60;5.82;;;4.50;99.90;;;;;;5048610;28;20281;-79
2021/03/07 12:10:26;;;;;;;8.00;4.30;;;3.90;99.90;;;;;;5048235;28;20208;-80
2021/03/07 12:12:52;;;;;;;5.80;5.03;;;4.20;99.90;;;;;;5049538;28;20208;-79
2021/03/07 12:15:19;;;;;;;5.03;4.47;;;4.20;99.90;;;;;;5048323;28;20204;-81
2021/03/07 12:17:45;;;;;;;7.90;4.90;;;3.90;99.90;;;;;;5051674;28;20199;-79
2021/03/07 12:20:12;;;;;;;6.43;5.35;;;4.30;99.90;;;;;;5094565;22;20250;-84
2021/03/07 12:22:38;;;;;;;6.75;5.47;;;4.40;99.90;;;;;;5059257;28;20210;-85
2021/03/07 12:25:14;;;;;;;5.47;4.70;;;4.40;99.90;;;;;;5059649;28;20214;-84
2021/03/07 12:27:46;;;;;;;5.93;5.25;;;4.30;99.90;;;;;;5058333;28;20219;-84
2021/03/07 12:30:13;;;;;;;6.30;4.95;;;4.30;99.90;;;;;;5055596;28;20211;-85
2021/03/07 12:32:42;;;;;;;8.80;5.32;;;4.30;99.90;;;;;;5058359;28;20211;-86
2021/03/07 12:35:10;;;;;;;5.43;4.90;;;4.20;99.90;;;;;;5059199;28;20188;-85
2021/03/07 12:37:36;;;;;;;5.70;4.70;;;4.10;99.90;;;;;;5058775;28;20218;-85
2021/03/07 12:40:04;;;;;;;8.10;4.50;;;4.20;99.90;;;;;;5057870;28;20232;-85
2021/03/07 12:42:31;;;;;;;10.80;4.43;;;4.30;99.90;;;;;;5060331;28;20207;-85
2021/03/07 12:44:58;;;;;;;5.88;5.03;;;4.20;99.90;;;;;;5060950;28;20180;-84
2021/03/07 12:47:24;;;;;;;6.32;5.20;;;4.20;99.90;;;;;;5060705;28;20227;-82
2021/03/07 12:49:50;;;;;;;11.63;5.60;;;4.20;99.90;;;;;;5060435;28;20230;-84
2021/03/07 12:52:16;;;;;;;8.93;4.75;;;4.50;99.90;;;;;;5049539;28;20580;-85
2021/03/07 12:54:42;;;;;;;5.43;4.90;;;4.30;99.90;;;;;;5040707;28;20281;-84
2021/03/07 12:57:09;;;;;;;11.63;5.60;;;4.30;99.90;;;;;;5039989;28;20617;-85
2021/03/07 12:59:36;;;;;;;11.32;5.60;;;4.30;99.90;;;;;;5040223;28;20231;-85
2021/03/07 13:02:02;;;;;;;4.25;3.83;;;4.10;99.90;;;;;;5041731;28;20207;-85
2021/03/07 13:04:28;;;;;;;9.68;6.07;;;4.30;99.90;;;;;;5042459;28;20210;-85